Time;durP1;ratioP1;P1;durP2;ratioP2;P2;SDS_P1;SDS_P2;PMS_P1;PMS_P2;Temp;Humidity;BMP_temperature;BMP_pressure;BME280_temperature;BME280_humidity;BME280_pressure;Samples;Min_cycle;Max_cycle;Signal;HPM_P1;HPM_P2
2021/03/31 00:09:54;;;;;;;8.05;3.22;;;11.60;98.20;;;;;;6638308;89;20627;-76
2021/03/31 00:19:55;;;;;;;6.85;3.10;;;11.40;99.10;;;;;;6641900;89;20367;-76
2021/03/31 00:29:55;;;;;;;9.70;3.20;;;11.20;99.90;;;;;;6638960;89;20783;-76
2021/03/31 00:39:56;;;;;;;6.68;3.28;;;11.00;99.90;;;;;;6643310;89;20223;-76
2021/03/31 00:49:56;;;;;;;7.47;3.25;;;10.80;99.90;;;;;;6632531;89;20198;-76
2021/03/31 00:59:57;;;;;;;7.07;3.40;;;10.80;99.90;;;;;;6645333;89;20670;-76
2021/03/31 01:09:57;;;;;;;7.85;3.12;;;10.80;99.90;;;;;;6613368;89;20205;-75
2021/03/31 01:20:48;;;;;;;9.52;2.90;;;10.70;99.90;;;;;;6637276;89;20774;-75
2021/03/31 01:31:01;;;;;;;7.82;3.12;;;10.50;99.90;;;;;;6645866;89;20199;-75
2021/03/31 01:41:02;;;;;;;7.40;3.30;;;10.40;99.90;;;;;;6641182;89;20204;-75
2021/03/31 01:51:10;;;;;;;7.22;3.30;;;10.30;99.90;;;;;;6642336;89;20201;-75
2021/03/31 02:01:15;;;;;;;6.65;3.12;;;10.20;99.90;;;;;;6638640;89;21099;-76
2021/03/31 02:11:16;;;;;;;7.10;3.10;;;10.00;99.90;;;;;;6616040;89;20215;-77
2021/03/31 02:21:17;;;;;;;9.10;3.28;;;9.90;99.90;;;;;;6635730;89;20194;-77
2021/03/31 02:31:20;;;;;;;7.35;3.30;;;9.90;99.90;;;;;;6632363;89;20197;-77
2021/03/31 02:41:21;;;;;;;9.60;3.30;;;10.00;99.90;;;;;;6635898;88;20206;-77
2021/03/31 02:51:21;;;;;;;9.13;3.40;;;9.80;99.90;;;;;;6628927;89;20722;-76
2021/03/31 03:01:23;;;;;;;7.47;3.80;;;9.70;99.90;;;;;;6631931;89;20236;-77
2021/03/31 03:11:24;;;;;;;8.07;3.20;;;9.70;99.90;;;;;;6641731;89;20660;-77
2021/03/31 03:21:27;;;;;;;9.77;3.70;;;9.60;99.90;;;;;;6648328;89;20234;-76
2021/03/31 03:31:28;;;;;;;9.25;4.35;;;9.70;99.90;;;;;;6634881;89;20643;-77
2021/03/31 03:41:29;;;;;;;12.55;3.95;;;9.50;99.90;;;;;;6645242;88;20262;-77
2021/03/31 03:51:31;;;;;;;7.18;3.22;;;9.40;99.90;;;;;;6633290;88;20271;-77
2021/03/31 04:01:34;;;;;;;10.52;3.78;;;9.30;99.90;;;;;;6629119;89;20660;-76
2021/03/31 04:11:36;;;;;;;8.63;3.92;;;9.10;99.90;;;;;;6634118;88;20268;-76
2021/03/31 04:21:38;;;;;;;7.45;3.80;;;8.80;99.90;;;;;;6642281;88;20282;-76
2021/03/31 04:31:41;;;;;;;15.18;5.70;;;8.70;99.90;;;;;;6631225;88;20312;-76
2021/03/31 04:41:42;;;;;;;7.80;4.00;;;8.60;99.90;;;;;;6637693;89;20640;-76
2021/03/31 04:51:42;;;;;;;8.43;4.10;;;8.40;99.90;;;;;;6633448;89;20266;-76
2021/03/31 05:01:43;;;;;;;8.68;4.07;;;8.30;99.90;;;;;;6637590;89;20206;-77
2021/03/31 05:11:44;;;;;;;9.60;3.83;;;8.20;99.90;;;;;;6635708;89;20209;-76
2021/03/31 05:21:44;;;;;;;9.40;4.40;;;8.30;99.90;;;;;;6641146;89;20209;-76
2021/03/31 05:31:45;;;;;;;9.17;4.13;;;8.30;99.90;;;;;;6640485;89;20737;-76
2021/03/31 05:41:46;;;;;;;12.68;4.03;;;8.20;99.90;;;;;;6643293;89;20532;-77
2021/03/31 05:51:46;;;;;;;15.40;5.12;;;8.30;99.90;;;;;;6651218;88;20378;-76
2021/03/31 06:01:48;;;;;;;10.82;4.80;;;8.30;99.90;;;;;;6650558;88;20208;-77
2021/03/31 06:11:55;;;;;;;10.85;5.03;;;8.60;99.90;;;;;;6641551;89;20212;-76
2021/03/31 06:21:59;;;;;;;10.40;4.45;;;8.70;99.90;;;;;;6635182;88;20241;-76
2021/03/31 06:32:14;;;;;;;11.43;4.22;;;9.00;99.90;;;;;;6631442;89;20193;-75
2021/03/31 06:42:18;;;;;;;13.13;4.87;;;9.60;99.90;;;;;;6648443;89;20252;-75
2021/03/31 06:52:18;;;;;;;9.82;4.65;;;10.20;99.90;;;;;;6645744;89;20215;-75
2021/03/31 07:02:19;;;;;;;11.38;4.87;;;10.80;99.90;;;;;;6641712;89;20719;-75
2021/03/31 07:12:23;;;;;;;10.63;4.50;;;11.60;99.90;;;;;;6621061;89;20354;-75
2021/03/31 07:22:24;;;;;;;13.00;4.60;;;12.30;99.90;;;;;;6639892;89;20216;-76
2021/03/31 07:32:25;;;;;;;9.65;4.75;;;13.20;99.90;;;;;;6637141;88;20205;-75
2021/03/31 07:42:27;;;;;;;10.00;4.85;;;13.80;98.50;;;;;;6645887;89;20210;-75
2021/03/31 07:52:54;;;;;;;8.15;4.25;;;14.50;97.10;;;;;;6633733;88;20197;-75
2021/03/31 08:02:55;;;;;;;11.12;4.87;;;15.30;94.00;;;;;;6639667;88;20237;-75
2021/03/31 08:12:55;;;;;;;12.83;5.00;;;16.10;91.10;;;;;;6643950;77;20250;-76
2021/03/31 08:22:56;;;;;;;16.40;5.68;;;16.90;84.60;;;;;;6734536;88;20534;-77
2021/03/31 08:32:57;;;;;;;11.23;5.10;;;17.70;80.70;;;;;;6737681;88;20385;-76
2021/03/31 08:43:00;;;;;;;15.93;5.55;;;18.50;74.20;;;;;;6734271;88;20218;-76
2021/03/31 08:53:04;;;;;;;11.70;5.68;;;18.90;72.20;;;;;;6735958;88;20739;-76
2021/03/31 09:03:05;;;;;;;13.38;5.45;;;19.20;69.80;;;;;;6735262;88;20189;-76
2021/03/31 09:13:05;;;;;;;10.88;5.40;;;19.80;67.30;;;;;;6734574;88;21014;-77
2021/03/31 09:23:06;;;;;;;11.07;5.45;;;20.60;64.30;;;;;;6733856;88;20209;-77
2021/03/31 09:33:13;;;;;;;13.32;5.57;;;21.00;62.50;;;;;;6735050;88;20219;-77
2021/03/31 09:43:14;;;;;;;10.38;5.93;;;22.00;60.10;;;;;;6737712;88;20216;-77
2021/03/31 09:53:15;;;;;;;13.10;5.53;;;22.20;57.30;;;;;;6728441;88;20257;-77
2021/03/31 10:03:16;;;;;;;16.12;6.75;;;22.50;56.90;;;;;;6734374;88;20215;-77
2021/03/31 10:13:19;;;;;;;11.85;6.18;;;24.40;54.10;;;;;;6731580;88;21151;-78
2021/03/31 10:23:31;;;;;;;13.30;5.53;;;24.10;53.00;;;;;;6739744;88;20318;-78
2021/03/31 10:33:32;;;;;;;14.45;5.90;;;24.20;51.90;;;;;;6740192;88;20185;-78
2021/03/31 10:54:01;;;;;;;7.70;4.20;;;25.80;50.40;;;;;;6717751;88;20166;-76
2021/03/31 11:04:02;;;;;;;8.00;4.00;;;27.00;50.00;;;;;;6733574;88;20197;-76
2021/03/31 11:14:03;;;;;;;8.50;3.90;;;29.20;47.00;;;;;;6735517;88;20205;-77
2021/03/31 11:34:23;;;;;;;7.07;2.30;;;31.20;42.60;;;;;;6724655;88;20189;-78
2021/03/31 11:44:23;;;;;;;3.90;1.67;;;31.50;39.40;;;;;;6732534;88;20215;-77
2021/03/31 11:54:24;;;;;;;4.68;2.00;;;31.50;38.90;;;;;;6737402;88;20684;-76
2021/03/31 12:04:24;;;;;;;50.67;6.15;;;32.60;37.50;;;;;;6735885;88;20193;-77
2021/03/31 12:14:25;;;;;;;11.48;3.10;;;32.80;37.20;;;;;;6732421;88;20282;-76
2021/03/31 12:24:26;;;;;;;12.35;2.67;;;32.90;38.90;;;;;;6745025;88;20233;-77
2021/03/31 12:34:28;;;;;;;6.10;2.15;;;33.30;39.10;;;;;;6734965;88;20184;-77
2021/03/31 12:44:29;;;;;;;6.43;2.25;;;34.20;38.30;;;;;;6731523;88;20321;-76
2021/03/31 12:55:16;;;;;;;6.72;2.30;;;34.10;37.50;;;;;;6738672;88;20567;-76
2021/03/31 13:04:52;;;;;;;7.68;2.50;;;34.80;36.80;;;;;;6732746;88;20177;-75
2021/03/31 13:25:17;;;;;;;14.70;2.87;;;34.70;36.70;;;;;;6735295;88;20357;-75
2021/03/31 13:35:25;;;;;;;12.40;2.80;;;34.20;36.90;;;;;;6734836;88;20588;-77
2021/03/31 13:45:25;;;;;;;10.75;2.90;;;35.20;36.50;;;;;;6734122;88;20233;-76
2021/03/31 13:55:29;;;;;;;12.80;2.70;;;33.70;36.80;;;;;;6730988;88;20227;-76
2021/03/31 14:05:30;;;;;;;7.25;3.30;;;32.70;38.00;;;;;;6748983;88;20756;-77
2021/03/31 14:15:31;;;;;;;5.83;3.33;;;33.20;39.10;;;;;;6750977;87;20212;-76
2021/03/31 14:25:31;;;;;;;5.53;2.20;;;31.90;38.90;;;;;;6742943;88;20218;-76
2021/03/31 14:35:32;;;;;;;6.07;2.78;;;30.40;38.60;;;;;;6737911;88;20716;-77
2021/03/31 14:45:33;;;;;;;5.22;2.30;;;31.00;38.90;;;;;;6736459;88;20203;-77
2021/03/31 15:05:34;;;;;;;6.07;1.77;;;32.30;38.50;;;;;;6737790;88;20185;-76
2021/03/31 15:15:34;;;;;;;6.55;2.05;;;32.20;34.60;;;;;;6734559;88;20653;-76
2021/03/31 15:25:35;;;;;;;4.85;1.52;;;31.70;36.30;;;;;;6734155;88;20714;-78
2021/03/31 15:35:35;;;;;;;5.80;2.22;;;30.90;35.20;;;;;;6734287;88;20192;-77
2021/03/31 15:45:38;;;;;;;6.95;2.20;;;30.20;36.30;;;;;;6738279;88;20216;-77
2021/03/31 15:55:39;;;;;;;5.93;2.40;;;29.60;36.10;;;;;;6733805;88;20172;-76
2021/03/31 16:05:42;;;;;;;6.55;2.42;;;29.50;36.80;;;;;;6745781;88;20196;-77
2021/03/31 16:15:43;;;;;;;6.78;2.20;;;28.70;37.90;;;;;;6751869;88;20213;-77
2021/03/31 16:25:43;;;;;;;8.18;2.42;;;28.40;39.80;;;;;;6744030;88;20186;-77
2021/03/31 16:35:46;;;;;;;6.60;2.10;;;28.60;40.30;;;;;;6739361;88;20267;-77
2021/03/31 16:45:46;;;;;;;;;;;28.40;39.50;;;;;;6737277;88;20272;-77
2021/03/31 16:55:47;;;;;;;7.22;2.53;;;27.90;40.70;;;;;;6734224;88;20115;-78
2021/03/31 17:05:48;;;;;;;5.50;2.65;;;27.60;41.10;;;;;;6735912;88;20347;-78
2021/03/31 17:15:48;;;;;;;9.88;3.45;;;26.80;42.20;;;;;;6736598;88;20260;-77
2021/03/31 17:25:49;;;;;;;10.27;3.87;;;26.00;44.00;;;;;;6741627;88;20267;-78
2021/03/31 17:35:49;;;;;;;12.85;4.30;;;25.40;45.90;;;;;;6735957;88;20211;-77
2021/03/31 17:45:50;;;;;;;11.85;4.57;;;24.70;46.90;;;;;;6740125;88;20243;-77
2021/03/31 17:55:51;;;;;;;13.93;4.75;;;24.20;48.10;;;;;;6741998;88;20193;-77
2021/03/31 18:05:51;;;;;;;13.63;4.63;;;23.70;49.20;;;;;;6740269;88;20211;-76
2021/03/31 18:15:52;;;;;;;16.27;4.93;;;23.20;50.30;;;;;;6742217;88;20243;-78
2021/03/31 18:25:52;;;;;;;9.48;4.80;;;22.70;51.50;;;;;;6736782;88;20345;-77
2021/03/31 18:35:53;;;;;;;13.62;5.62;;;22.20;52.80;;;;;;6735079;88;20702;-77
2021/03/31 18:45:53;;;;;;;13.82;6.43;;;21.80;54.00;;;;;;6739035;88;20303;-77
2021/03/31 18:55:54;;;;;;;11.05;6.53;;;21.40;55.70;;;;;;6739968;88;20621;-78
2021/03/31 19:05:55;;;;;;;10.60;5.50;;;21.10;56.60;;;;;;6739796;88;20235;-77
2021/03/31 19:15:55;;;;;;;11.93;6.07;;;20.80;57.40;;;;;;6741652;88;21257;-78
2021/03/31 19:25:57;;;;;;;14.95;6.55;;;20.50;59.10;;;;;;6738504;88;20200;-77
2021/03/31 19:35:58;;;;;;;13.05;5.68;;;20.00;60.20;;;;;;6734864;88;20258;-77
2021/03/31 19:45:58;;;;;;;13.75;6.32;;;19.70;61.20;;;;;;6725311;88;20185;-77
2021/03/31 19:56:00;;;;;;;18.15;9.35;;;19.50;61.80;;;;;;6732427;88;20192;-77
2021/03/31 20:06:00;;;;;;;15.00;8.05;;;19.40;62.70;;;;;;6732666;88;20194;-77
2021/03/31 20:16:03;;;;;;;12.15;6.82;;;19.00;64.00;;;;;;6732702;88;20205;-76
2021/03/31 20:26:04;;;;;;;16.48;7.15;;;18.60;64.20;;;;;;6732103;88;20316;-77
2021/03/31 20:36:06;;;;;;;14.90;5.87;;;18.20;65.60;;;;;;6733833;88;20304;-76
2021/03/31 20:46:06;;;;;;;12.57;6.28;;;18.00;66.70;;;;;;6718780;88;20211;-77
2021/03/31 20:56:07;;;;;;;12.83;5.70;;;17.70;68.30;;;;;;6720714;88;20680;-76
2021/03/31 21:06:07;;;;;;;15.45;6.80;;;17.50;69.40;;;;;;6736224;88;20501;-76
2021/03/31 21:16:08;;;;;;;12.00;5.70;;;17.30;71.40;;;;;;6729789;88;20221;-75
2021/03/31 21:26:09;;;;;;;16.77;6.15;;;16.90;73.60;;;;;;6719689;88;20182;-76
2021/03/31 21:36:10;;;;;;;12.63;6.25;;;16.60;78.90;;;;;;6702130;88;20198;-76
2021/03/31 21:46:11;;;;;;;11.73;6.50;;;16.40;85.80;;;;;;6702264;88;20203;-77
2021/03/31 21:56:13;;;;;;;20.92;6.90;;;16.20;90.00;;;;;;6735009;88;20553;-76
2021/03/31 22:06:13;;;;;;;11.82;6.35;;;16.00;92.20;;;;;;6736480;88;20201;-76
2021/03/31 22:16:15;;;;;;;16.63;7.23;;;15.70;93.80;;;;;;6741824;87;20202;-76
2021/03/31 22:26:18;;;;;;;18.10;6.97;;;15.60;95.20;;;;;;6753415;88;20523;-76
2021/03/31 22:36:19;;;;;;;14.48;6.80;;;15.50;96.10;;;;;;6753005;88;20220;-76
2021/03/31 22:46:24;;;;;;;12.20;6.53;;;15.20;97.30;;;;;;6752498;88;20274;-77
2021/03/31 22:56:25;;;;;;;18.67;6.97;;;15.00;99.60;;;;;;6752524;88;20204;-76
2021/03/31 23:06:27;;;;;;;13.93;6.87;;;14.90;99.90;;;;;;6751956;88;20199;-77
2021/03/31 23:16:28;;;;;;;14.10;6.20;;;14.80;99.90;;;;;;6751509;88;20214;-76
2021/03/31 23:26:29;;;;;;;12.43;6.53;;;14.50;99.90;;;;;;6752044;88;20685;-75
2021/03/31 23:36:30;;;;;;;11.40;6.12;;;14.40;99.90;;;;;;6753122;88;20641;-74
2021/03/31 23:46:30;;;;;;;13.45;6.07;;;14.10;99.90;;;;;;6751033;88;20328;-76
2021/03/31 23:56:31;;;;;;;12.32;6.20;;;13.90;99.90;;;;;;6752943;88;20215;-76
